Kiester, Minnesota
Current Conditions -  °F | °C
As of 9:53 PM on Saturday 22 Nov 2014 (Local Time) from KAEL Reporting Station
Haze Haze  
Wind Chill:   Ceiling: 200
Heat Index:   Visibility: 1mi
Dew Point:   Wind: 10mph
Humidity: 100%   Direction: 170°S
Pressure: 29.56"   Gusts: 16mph
Location:  43.54°N, 93.71°W
Report Text: KAEL 230353Z AUTO 17009G14KT 1SM BR OVC002 08/08 A2956 RMK AO2
Loading
Personal Weather Stations






























Interactive Weather Map New forecast layout! Learn more

10-Day Weather Forecast

Advertisements
Track Severe Weather on mobile